sensor_id;sensor_type;location;lat;lon;timestamp;temperature;humidity
30097;DHT22;16915;51.466;3.610;2022-10-22T00:01:40;15.30;99.90
30097;DHT22;16915;51.466;3.610;2022-10-22T00:04:13;15.20;99.90
30097;DHT22;16915;51.466;3.610;2022-10-22T00:06:44;15.20;99.90
30097;DHT22;16915;51.466;3.610;2022-10-22T00:09:22;15.20;99.90
30097;DHT22;16915;51.466;3.610;2022-10-22T00:11:54;15.20;99.90
30097;DHT22;16915;51.466;3.610;2022-10-22T00:14:27;15.00;99.90
30097;DHT22;16915;51.466;3.610;2022-10-22T00:16:54;15.10;99.90
30097;DHT22;16915;51.466;3.610;2022-10-22T00:19:21;15.10;99.90
30097;DHT22;16915;51.466;3.610;2022-10-22T00:21:53;15.10;99.90
30097;DHT22;16915;51.466;3.610;2022-10-22T00:24:19;15.00;99.90
30097;DHT22;16915;51.466;3.610;2022-10-22T00:26:46;15.00;99.90
30097;DHT22;16915;51.466;3.610;2022-10-22T00:29:21;15.00;99.90
30097;DHT22;16915;51.466;3.610;2022-10-22T00:31:49;15.00;99.90
30097;DHT22;16915;51.466;3.610;2022-10-22T00:34:19;15.00;99.90
30097;DHT22;16915;51.466;3.610;2022-10-22T00:36:54;15.00;99.90
30097;DHT22;16915;51.466;3.610;2022-10-22T00:39:22;15.00;99.90
30097;DHT22;16915;51.466;3.610;2022-10-22T00:41:52;15.00;99.90
30097;DHT22;16915;51.466;3.610;2022-10-22T00:47:24;15.00;99.90
30097;DHT22;16915;51.466;3.610;2022-10-22T00:49:52;15.00;99.90
30097;DHT22;16915;51.466;3.610;2022-10-22T00:52:23;15.00;99.90
30097;DHT22;16915;51.466;3.610;2022-10-22T00:54:50;15.00;99.90
30097;DHT22;16915;51.466;3.610;2022-10-22T00:57:17;15.00;99.90
30097;DHT22;16915;51.466;3.610;2022-10-22T00:59:48;15.00;99.90
30097;DHT22;16915;51.466;3.610;2022-10-22T01:02:14;15.00;99.90
30097;DHT22;16915;51.466;3.610;2022-10-22T01:04:45;15.00;99.90
30097;DHT22;16915;51.466;3.610;2022-10-22T01:07:19;15.00;99.90
30097;DHT22;16915;51.466;3.610;2022-10-22T01:10:16;14.90;99.90
30097;DHT22;16915;51.466;3.610;2022-10-22T01:13:14;14.90;99.90
30097;DHT22;16915;51.466;3.610;2022-10-22T01:16:07;14.90;99.90
30097;DHT22;16915;51.466;3.610;2022-10-22T01:21:44;14.90;99.90
30097;DHT22;16915;51.466;3.610;2022-10-22T01:24:27;14.90;99.90
30097;DHT22;16915;51.466;3.610;2022-10-22T01:30:09;14.80;99.90
30097;DHT22;16915;51.466;3.610;2022-10-22T01:32:53;14.80;99.90
30097;DHT22;16915;51.466;3.610;2022-10-22T01:35:34;14.80;99.90
30097;DHT22;16915;51.466;3.610;2022-10-22T01:38:05;14.70;99.90
30097;DHT22;16915;51.466;3.610;2022-10-22T01:40:37;14.70;99.90
30097;DHT22;16915;51.466;3.610;2022-10-22T01:43:06;14.70;99.90
30097;DHT22;16915;51.466;3.610;2022-10-22T01:45:37;14.80;99.90
30097;DHT22;16915;51.466;3.610;2022-10-22T01:59:44;14.70;99.90
30097;DHT22;16915;51.466;3.610;2022-10-22T02:05:21;14.70;99.90
30097;DHT22;16915;51.466;3.610;2022-10-22T02:08:05;14.70;99.90
30097;DHT22;16915;51.466;3.610;2022-10-22T02:10:37;14.70;99.90
30097;DHT22;16915;51.466;3.610;2022-10-22T02:13:11;14.70;99.90
30097;DHT22;16915;51.466;3.610;2022-10-22T02:15:42;14.70;99.90
30097;DHT22;16915;51.466;3.610;2022-10-22T02:18:11;14.70;99.90
30097;DHT22;16915;51.466;3.610;2022-10-22T02:20:45;14.70;99.90
30097;DHT22;16915;51.466;3.610;2022-10-22T02:23:22;14.70;99.90
30097;DHT22;16915;51.466;3.610;2022-10-22T02:25:55;14.70;99.90
30097;DHT22;16915;51.466;3.610;2022-10-22T02:28:57;14.70;99.90
30097;DHT22;16915;51.466;3.610;2022-10-22T02:31:46;14.70;99.90
30097;DHT22;16915;51.466;3.610;2022-10-22T02:34:20;14.70;99.90
30097;DHT22;16915;51.466;3.610;2022-10-22T02:36:49;14.60;99.90
30097;DHT22;16915;51.466;3.610;2022-10-22T02:39:16;14.60;99.90
30097;DHT22;16915;51.466;3.610;2022-10-22T02:41:50;14.60;99.90
30097;DHT22;16915;51.466;3.610;2022-10-22T02:44:23;14.60;99.90
30097;DHT22;16915;51.466;3.610;2022-10-22T02:46:57;14.50;99.90
30097;DHT22;16915;51.466;3.610;2022-10-22T02:49:25;14.50;99.90
30097;DHT22;16915;51.466;3.610;2022-10-22T02:51:54;14.50;99.90
30097;DHT22;16915;51.466;3.610;2022-10-22T02:54:24;14.50;99.90
30097;DHT22;16915;51.466;3.610;2022-10-22T02:56:51;14.50;99.90
30097;DHT22;16915;51.466;3.610;2022-10-22T02:59:19;14.50;99.90
30097;DHT22;16915;51.466;3.610;2022-10-22T03:01:51;14.50;99.90
30097;DHT22;16915;51.466;3.610;2022-10-22T03:04:18;14.50;99.90
30097;DHT22;16915;51.466;3.610;2022-10-22T03:18:45;14.60;99.90
30097;DHT22;16915;51.466;3.610;2022-10-22T03:21:45;14.60;99.90
30097;DHT22;16915;51.466;3.610;2022-10-22T03:27:02;14.60;99.90
30097;DHT22;16915;51.466;3.610;2022-10-22T03:29:37;14.60;99.90
30097;DHT22;16915;51.466;3.610;2022-10-22T03:32:09;14.60;99.90
30097;DHT22;16915;51.466;3.610;2022-10-22T03:34:37;14.60;99.90
30097;DHT22;16915;51.466;3.610;2022-10-22T03:37:05;14.70;99.90
30097;DHT22;16915;51.466;3.610;2022-10-22T03:39:36;14.60;99.90
30097;DHT22;16915;51.466;3.610;2022-10-22T03:44:53;14.70;99.90
30097;DHT22;16915;51.466;3.610;2022-10-22T03:48:19;14.70;99.90
30097;DHT22;16915;51.466;3.610;2022-10-22T03:50:54;14.70;99.90
30097;DHT22;16915;51.466;3.610;2022-10-22T03:53:32;14.80;99.90
30097;DHT22;16915;51.466;3.610;2022-10-22T03:55:59;14.70;99.90
30097;DHT22;16915;51.466;3.610;2022-10-22T03:58:32;14.70;99.90
30097;DHT22;16915;51.466;3.610;2022-10-22T04:01:10;14.70;99.90
30097;DHT22;16915;51.466;3.610;2022-10-22T04:03:38;14.70;99.90
30097;DHT22;16915;51.466;3.610;2022-10-22T04:06:08;14.80;99.90
30097;DHT22;16915;51.466;3.610;2022-10-22T04:08:40;14.80;99.90
30097;DHT22;16915;51.466;3.610;2022-10-22T04:11:07;14.80;99.90
30097;DHT22;16915;51.466;3.610;2022-10-22T04:13:35;14.80;99.90
30097;DHT22;16915;51.466;3.610;2022-10-22T04:16:18;14.80;99.90
30097;DHT22;16915;51.466;3.610;2022-10-22T04:19:02;14.80;99.90
30097;DHT22;16915;51.466;3.610;2022-10-22T04:21:29;14.80;99.90
30097;DHT22;16915;51.466;3.610;2022-10-22T04:24:00;14.80;99.90
30097;DHT22;16915;51.466;3.610;2022-10-22T04:26:27;14.80;99.90
30097;DHT22;16915;51.466;3.610;2022-10-22T04:28:56;14.80;99.90
30097;DHT22;16915;51.466;3.610;2022-10-22T04:31:24;14.70;99.90
30097;DHT22;16915;51.466;3.610;2022-10-22T04:34:00;14.70;99.90
30097;DHT22;16915;51.466;3.610;2022-10-22T04:36:27;14.70;99.90
30097;DHT22;16915;51.466;3.610;2022-10-22T04:38:55;14.70;99.90
30097;DHT22;16915;51.466;3.610;2022-10-22T04:44:51;14.60;99.90
30097;DHT22;16915;51.466;3.610;2022-10-22T04:47:39;14.60;99.90
30097;DHT22;16915;51.466;3.610;2022-10-22T04:50:18;14.60;99.90
30097;DHT22;16915;51.466;3.610;2022-10-22T04:52:56;14.50;99.90
30097;DHT22;16915;51.466;3.610;2022-10-22T04:55:29;14.70;99.90
30097;DHT22;16915;51.466;3.610;2022-10-22T04:58:05;14.80;99.90
30097;DHT22;16915;51.466;3.610;2022-10-22T05:00:32;14.80;99.90
30097;DHT22;16915;51.466;3.610;2022-10-22T05:02:59;14.80;99.90
30097;DHT22;16915;51.466;3.610;2022-10-22T05:05:24;14.70;99.90
30097;DHT22;16915;51.466;3.610;2022-10-22T05:08:15;14.70;99.90
30097;DHT22;16915;51.466;3.610;2022-10-22T05:10:44;14.60;99.90
30097;DHT22;16915;51.466;3.610;2022-10-22T05:13:19;14.50;99.90
30097;DHT22;16915;51.466;3.610;2022-10-22T05:15:50;14.50;99.90
30097;DHT22;16915;51.466;3.610;2022-10-22T05:18:38;14.40;99.90
30097;DHT22;16915;51.466;3.610;2022-10-22T05:21:12;14.40;99.90
30097;DHT22;16915;51.466;3.610;2022-10-22T05:24:22;14.40;99.90
30097;DHT22;16915;51.466;3.610;2022-10-22T05:45:09;14.60;99.90
30097;DHT22;16915;51.466;3.610;2022-10-22T05:47:35;14.60;99.90
30097;DHT22;16915;51.466;3.610;2022-10-22T05:50:04;14.50;99.90
30097;DHT22;16915;51.466;3.610;2022-10-22T05:52:56;14.60;99.90
30097;DHT22;16915;51.466;3.610;2022-10-22T05:58:16;14.50;99.90
30097;DHT22;16915;51.466;3.610;2022-10-22T06:12:09;14.20;99.90
30097;DHT22;16915;51.466;3.610;2022-10-22T06:14:42;14.20;99.90
30097;DHT22;16915;51.466;3.610;2022-10-22T06:17:11;14.20;99.90
30097;DHT22;16915;51.466;3.610;2022-10-22T06:20:32;14.20;99.90
30097;DHT22;16915;51.466;3.610;2022-10-22T06:31:32;14.20;99.90
30097;DHT22;16915;51.466;3.610;2022-10-22T06:34:04;14.10;99.90
30097;DHT22;16915;51.466;3.610;2022-10-22T06:36:35;14.20;99.90
30097;DHT22;16915;51.466;3.610;2022-10-22T06:39:12;14.20;99.90
30097;DHT22;16915;51.466;3.610;2022-10-22T06:52:38;14.40;99.90
30097;DHT22;16915;51.466;3.610;2022-10-22T07:14:06;14.50;99.90
30097;DHT22;16915;51.466;3.610;2022-10-22T07:16:32;14.50;99.90
30097;DHT22;16915;51.466;3.610;2022-10-22T07:19:00;14.60;99.90
30097;DHT22;16915;51.466;3.610;2022-10-22T07:21:31;14.70;99.90
30097;DHT22;16915;51.466;3.610;2022-10-22T07:24:00;14.70;99.90
30097;DHT22;16915;51.466;3.610;2022-10-22T07:26:29;14.70;99.90
30097;DHT22;16915;51.466;3.610;2022-10-22T07:28:58;14.70;99.90
30097;DHT22;16915;51.466;3.610;2022-10-22T07:31:24;14.90;99.90
30097;DHT22;16915;51.466;3.610;2022-10-22T07:33:51;14.90;99.90
30097;DHT22;16915;51.466;3.610;2022-10-22T07:36:26;15.00;99.90
30097;DHT22;16915;51.466;3.610;2022-10-22T07:39:01;15.00;99.90
30097;DHT22;16915;51.466;3.610;2022-10-22T07:41:51;15.10;99.90
30097;DHT22;16915;51.466;3.610;2022-10-22T07:44:25;15.00;99.90
30097;DHT22;16915;51.466;3.610;2022-10-22T07:46:59;15.00;99.90
30097;DHT22;16915;51.466;3.610;2022-10-22T07:49:34;15.10;99.90
30097;DHT22;16915;51.466;3.610;2022-10-22T07:52:06;15.10;99.90
30097;DHT22;16915;51.466;3.610;2022-10-22T07:55:09;15.10;99.90
30097;DHT22;16915;51.466;3.610;2022-10-22T07:58:43;15.10;99.90
30097;DHT22;16915;51.466;3.610;2022-10-22T08:01:36;15.20;99.90
30097;DHT22;16915;51.466;3.610;2022-10-22T08:04:47;15.10;99.90
30097;DHT22;16915;51.466;3.610;2022-10-22T08:08:00;15.10;99.90
30097;DHT22;16915;51.466;3.610;2022-10-22T08:11:04;15.00;99.90
30097;DHT22;16915;51.466;3.610;2022-10-22T08:13:35;15.00;99.90
30097;DHT22;16915;51.466;3.610;2022-10-22T08:16:21;14.90;99.90
30097;DHT22;16915;51.466;3.610;2022-10-22T08:18:50;14.90;99.90
30097;DHT22;16915;51.466;3.610;2022-10-22T08:21:29;15.00;99.90
30097;DHT22;16915;51.466;3.610;2022-10-22T08:24:36;14.90;99.90
30097;DHT22;16915;51.466;3.610;2022-10-22T08:27:02;14.90;99.90
30097;DHT22;16915;51.466;3.610;2022-10-22T08:29:28;14.90;99.90
30097;DHT22;16915;51.466;3.610;2022-10-22T08:31:54;14.90;99.90
30097;DHT22;16915;51.466;3.610;2022-10-22T08:34:19;15.00;99.90
30097;DHT22;16915;51.466;3.610;2022-10-22T08:36:47;15.10;99.90
30097;DHT22;16915;51.466;3.610;2022-10-22T08:39:17;15.10;99.90
30097;DHT22;16915;51.466;3.610;2022-10-22T08:48:49;15.20;99.90
30097;DHT22;16915;51.466;3.610;2022-10-22T08:51:25;15.20;99.90
30097;DHT22;16915;51.466;3.610;2022-10-22T08:57:19;15.30;99.90
30097;DHT22;16915;51.466;3.610;2022-10-22T09:03:00;15.80;99.90
30097;DHT22;16915;51.466;3.610;2022-10-22T09:08:11;16.10;99.90
30097;DHT22;16915;51.466;3.610;2022-10-22T09:10:52;16.20;99.90
30097;DHT22;16915;51.466;3.610;2022-10-22T09:13:21;16.20;99.90
30097;DHT22;16915;51.466;3.610;2022-10-22T09:16:00;16.30;99.90
30097;DHT22;16915;51.466;3.610;2022-10-22T09:18:50;16.40;99.90
30097;DHT22;16915;51.466;3.610;2022-10-22T09:21:32;16.40;99.90
30097;DHT22;16915;51.466;3.610;2022-10-22T09:24:30;16.50;99.90
30097;DHT22;16915;51.466;3.610;2022-10-22T09:26:59;16.60;99.90
30097;DHT22;16915;51.466;3.610;2022-10-22T09:29:32;16.80;99.90
30097;DHT22;16915;51.466;3.610;2022-10-22T09:31:58;17.00;99.90
30097;DHT22;16915;51.466;3.610;2022-10-22T09:34:23;17.30;99.90
30097;DHT22;16915;51.466;3.610;2022-10-22T09:37:04;17.60;99.90
30097;DHT22;16915;51.466;3.610;2022-10-22T09:39:44;17.80;99.90
30097;DHT22;16915;51.466;3.610;2022-10-22T09:42:13;18.10;99.90
30097;DHT22;16915;51.466;3.610;2022-10-22T09:44:40;18.40;99.90
30097;DHT22;16915;51.466;3.610;2022-10-22T09:47:07;18.50;99.90
30097;DHT22;16915;51.466;3.610;2022-10-22T09:50:05;18.50;99.90
30097;DHT22;16915;51.466;3.610;2022-10-22T09:52:31;18.30;99.90
30097;DHT22;16915;51.466;3.610;2022-10-22T09:55:01;18.30;99.90
30097;DHT22;16915;51.466;3.610;2022-10-22T09:57:28;18.30;99.90
30097;DHT22;16915;51.466;3.610;2022-10-22T09:59:54;18.10;99.90
30097;DHT22;16915;51.466;3.610;2022-10-22T10:02:26;18.20;99.90
30097;DHT22;16915;51.466;3.610;2022-10-22T10:04:56;18.60;99.90
30097;DHT22;16915;51.466;3.610;2022-10-22T10:07:32;18.80;99.90
30097;DHT22;16915;51.466;3.610;2022-10-22T10:09:58;19.10;99.90
30097;DHT22;16915;51.466;3.610;2022-10-22T10:12:39;19.30;99.90
30097;DHT22;16915;51.466;3.610;2022-10-22T10:18:28;19.60;99.90
30097;DHT22;16915;51.466;3.610;2022-10-22T10:24:02;19.10;99.90
30097;DHT22;16915;51.466;3.610;2022-10-22T10:35:13;19.10;99.90
30097;DHT22;16915;51.466;3.610;2022-10-22T10:37:54;19.00;99.90
30097;DHT22;16915;51.466;3.610;2022-10-22T10:49:04;19.30;99.90
30097;DHT22;16915;51.466;3.610;2022-10-22T10:54:53;19.00;99.90
30097;DHT22;16915;51.466;3.610;2022-10-22T10:57:49;18.70;99.90
30097;DHT22;16915;51.466;3.610;2022-10-22T11:00:46;18.50;99.90
30097;DHT22;16915;51.466;3.610;2022-10-22T11:06:09;18.10;99.90
30097;DHT22;16915;51.466;3.610;2022-10-22T11:08:40;17.90;99.90
30097;DHT22;16915;51.466;3.610;2022-10-22T11:11:20;17.90;99.90
30097;DHT22;16915;51.466;3.610;2022-10-22T11:14:12;18.10;99.90
30097;DHT22;16915;51.466;3.610;2022-10-22T11:16:51;18.20;99.90
30097;DHT22;16915;51.466;3.610;2022-10-22T11:19:31;18.30;99.90
30097;DHT22;16915;51.466;3.610;2022-10-22T11:22:08;18.30;99.90
30097;DHT22;16915;51.466;3.610;2022-10-22T11:28:00;18.20;99.90
30097;DHT22;16915;51.466;3.610;2022-10-22T11:30:33;18.70;99.90
30097;DHT22;16915;51.466;3.610;2022-10-22T11:33:05;19.30;99.90
30097;DHT22;16915;51.466;3.610;2022-10-22T11:35:39;19.90;99.90
30097;DHT22;16915;51.466;3.610;2022-10-22T11:38:06;20.50;99.90
30097;DHT22;16915;51.466;3.610;2022-10-22T11:40:42;20.10;99.90
30097;DHT22;16915;51.466;3.610;2022-10-22T11:43:10;20.00;99.90
30097;DHT22;16915;51.466;3.610;2022-10-22T11:45:41;20.60;99.90
30097;DHT22;16915;51.466;3.610;2022-10-22T11:50:50;20.30;99.90
30097;DHT22;16915;51.466;3.610;2022-10-22T12:08:30;19.50;99.90
30097;DHT22;16915;51.466;3.610;2022-10-22T12:16:47;18.80;99.90
30097;DHT22;16915;51.466;3.610;2022-10-22T12:19:23;19.10;99.90
30097;DHT22;16915;51.466;3.610;2022-10-22T12:24:45;22.10;99.90
30097;DHT22;16915;51.466;3.610;2022-10-22T12:27:40;23.40;99.90
30097;DHT22;16915;51.466;3.610;2022-10-22T12:30:27;24.20;99.90
30097;DHT22;16915;51.466;3.610;2022-10-22T12:32:55;25.10;99.90
30097;DHT22;16915;51.466;3.610;2022-10-22T12:35:24;26.00;99.90
30097;DHT22;16915;51.466;3.610;2022-10-22T12:38:02;26.10;99.90
30097;DHT22;16915;51.466;3.610;2022-10-22T12:40:34;25.10;99.90
30097;DHT22;16915;51.466;3.610;2022-10-22T12:43:06;24.00;99.90
30097;DHT22;16915;51.466;3.610;2022-10-22T12:45:33;23.70;99.90
30097;DHT22;16915;51.466;3.610;2022-10-22T12:48:05;24.00;99.90
30097;DHT22;16915;51.466;3.610;2022-10-22T12:50:39;24.40;99.90
30097;DHT22;16915;51.466;3.610;2022-10-22T12:53:23;24.70;99.90
30097;DHT22;16915;51.466;3.610;2022-10-22T12:55:52;25.00;99.90
30097;DHT22;16915;51.466;3.610;2022-10-22T12:58:21;25.30;99.90
30097;DHT22;16915;51.466;3.610;2022-10-22T13:00:56;25.40;99.90
30097;DHT22;16915;51.466;3.610;2022-10-22T13:06:44;25.90;99.90
30097;DHT22;16915;51.466;3.610;2022-10-22T13:09:17;25.80;99.90
30097;DHT22;16915;51.466;3.610;2022-10-22T13:11:55;25.40;99.90
30097;DHT22;16915;51.466;3.610;2022-10-22T13:14:35;25.00;99.90
30097;DHT22;16915;51.466;3.610;2022-10-22T13:19:46;23.20;99.90
30097;DHT22;16915;51.466;3.610;2022-10-22T13:25:22;21.60;99.90
30097;DHT22;16915;51.466;3.610;2022-10-22T13:27:55;21.10;99.90
30097;DHT22;16915;51.466;3.610;2022-10-22T13:30:30;21.10;99.90
30097;DHT22;16915;51.466;3.610;2022-10-22T13:33:04;21.20;99.90
30097;DHT22;16915;51.466;3.610;2022-10-22T13:35:33;20.80;99.90
30097;DHT22;16915;51.466;3.610;2022-10-22T13:38:00;20.50;99.90
30097;DHT22;16915;51.466;3.610;2022-10-22T13:40:26;20.10;99.90
30097;DHT22;16915;51.466;3.610;2022-10-22T13:42:52;19.70;99.90
30097;DHT22;16915;51.466;3.610;2022-10-22T13:45:23;19.50;99.90
30097;DHT22;16915;51.466;3.610;2022-10-22T13:47:53;19.40;99.90
30097;DHT22;16915;51.466;3.610;2022-10-22T13:50:20;19.40;99.90
30097;DHT22;16915;51.466;3.610;2022-10-22T13:52:50;19.30;99.90
30097;DHT22;16915;51.466;3.610;2022-10-22T13:55:22;19.30;99.90
30097;DHT22;16915;51.466;3.610;2022-10-22T13:58:14;19.30;99.90
30097;DHT22;16915;51.466;3.610;2022-10-22T14:00:47;19.20;99.90
30097;DHT22;16915;51.466;3.610;2022-10-22T14:03:19;19.20;99.90
30097;DHT22;16915;51.466;3.610;2022-10-22T14:05:47;19.10;99.90
30097;DHT22;16915;51.466;3.610;2022-10-22T14:08:20;19.10;99.90
30097;DHT22;16915;51.466;3.610;2022-10-22T14:10:46;19.20;99.90
30097;DHT22;16915;51.466;3.610;2022-10-22T14:13:15;19.30;99.90
30097;DHT22;16915;51.466;3.610;2022-10-22T14:15:41;19.40;99.90
30097;DHT22;16915;51.466;3.610;2022-10-22T14:18:34;19.40;99.90
30097;DHT22;16915;51.466;3.610;2022-10-22T14:21:02;19.40;99.90
30097;DHT22;16915;51.466;3.610;2022-10-22T14:23:34;19.40;99.90
30097;DHT22;16915;51.466;3.610;2022-10-22T14:26:02;19.30;99.90
30097;DHT22;16915;51.466;3.610;2022-10-22T14:28:28;19.20;99.90
30097;DHT22;16915;51.466;3.610;2022-10-22T14:30:54;19.10;99.90
30097;DHT22;16915;51.466;3.610;2022-10-22T14:33:21;19.00;99.90
30097;DHT22;16915;51.466;3.610;2022-10-22T14:35:48;18.90;99.90
30097;DHT22;16915;51.466;3.610;2022-10-22T14:38:29;19.00;99.90
30097;DHT22;16915;51.466;3.610;2022-10-22T14:40:55;18.90;99.90
30097;DHT22;16915;51.466;3.610;2022-10-22T14:43:32;18.90;99.90
30097;DHT22;16915;51.466;3.610;2022-10-22T14:45:57;18.90;99.90
30097;DHT22;16915;51.466;3.610;2022-10-22T14:48:23;18.90;99.90
30097;DHT22;16915;51.466;3.610;2022-10-22T14:50:49;18.80;99.90
30097;DHT22;16915;51.466;3.610;2022-10-22T14:53:15;18.80;99.90
30097;DHT22;16915;51.466;3.610;2022-10-22T14:55:42;18.80;99.90
30097;DHT22;16915;51.466;3.610;2022-10-22T14:58:09;18.70;99.90
30097;DHT22;16915;51.466;3.610;2022-10-22T15:00:35;18.70;99.90
30097;DHT22;16915;51.466;3.610;2022-10-22T15:03:02;18.70;99.90
30097;DHT22;16915;51.466;3.610;2022-10-22T15:05:27;18.60;99.90
30097;DHT22;16915;51.466;3.610;2022-10-22T15:07:53;18.60;99.90
30097;DHT22;16915;51.466;3.610;2022-10-22T15:10:19;18.50;99.90
30097;DHT22;16915;51.466;3.610;2022-10-22T15:12:44;18.50;99.90
30097;DHT22;16915;51.466;3.610;2022-10-22T15:15:10;18.40;99.90
30097;DHT22;16915;51.466;3.610;2022-10-22T15:17:37;18.30;99.90
30097;DHT22;16915;51.466;3.610;2022-10-22T15:20:04;18.30;99.90
30097;DHT22;16915;51.466;3.610;2022-10-22T15:22:31;18.20;99.90
30097;DHT22;16915;51.466;3.610;2022-10-22T15:25:00;18.20;99.90
30097;DHT22;16915;51.466;3.610;2022-10-22T15:27:26;18.20;99.90
30097;DHT22;16915;51.466;3.610;2022-10-22T15:29:51;18.20;99.90
30097;DHT22;16915;51.466;3.610;2022-10-22T15:32:17;18.10;99.90
30097;DHT22;16915;51.466;3.610;2022-10-22T15:34:43;18.10;99.90
30097;DHT22;16915;51.466;3.610;2022-10-22T15:37:10;18.00;99.90
30097;DHT22;16915;51.466;3.610;2022-10-22T15:39:40;18.00;99.90
30097;DHT22;16915;51.466;3.610;2022-10-22T15:42:06;18.00;99.90
30097;DHT22;16915;51.466;3.610;2022-10-22T15:44:35;17.90;99.90
30097;DHT22;16915;51.466;3.610;2022-10-22T15:47:03;17.90;99.90
30097;DHT22;16915;51.466;3.610;2022-10-22T15:49:30;17.80;99.90
30097;DHT22;16915;51.466;3.610;2022-10-22T15:51:56;17.80;99.90
30097;DHT22;16915;51.466;3.610;2022-10-22T15:54:25;17.70;99.90
30097;DHT22;16915;51.466;3.610;2022-10-22T15:56:53;17.60;99.90
30097;DHT22;16915;51.466;3.610;2022-10-22T15:59:19;17.60;99.90
30097;DHT22;16915;51.466;3.610;2022-10-22T16:01:44;17.40;99.90
30097;DHT22;16915;51.466;3.610;2022-10-22T16:04:10;17.30;99.90
30097;DHT22;16915;51.466;3.610;2022-10-22T16:06:38;17.20;99.90
30097;DHT22;16915;51.466;3.610;2022-10-22T16:09:08;17.10;99.90
30097;DHT22;16915;51.466;3.610;2022-10-22T16:11:36;17.00;99.90
30097;DHT22;16915;51.466;3.610;2022-10-22T16:14:02;16.90;99.90
30097;DHT22;16915;51.466;3.610;2022-10-22T16:16:30;16.80;99.90
30097;DHT22;16915;51.466;3.610;2022-10-22T16:18:56;16.80;99.90
30097;DHT22;16915;51.466;3.610;2022-10-22T16:21:23;16.70;99.90
30097;DHT22;16915;51.466;3.610;2022-10-22T16:23:49;16.60;99.90
30097;DHT22;16915;51.466;3.610;2022-10-22T16:26:16;16.40;99.90
30097;DHT22;16915;51.466;3.610;2022-10-22T16:28:42;16.40;99.90
30097;DHT22;16915;51.466;3.610;2022-10-22T16:31:10;16.30;99.90
30097;DHT22;16915;51.466;3.610;2022-10-22T16:33:38;16.20;99.90
30097;DHT22;16915;51.466;3.610;2022-10-22T16:36:14;16.10;99.90
30097;DHT22;16915;51.466;3.610;2022-10-22T16:38:40;16.00;99.90
30097;DHT22;16915;51.466;3.610;2022-10-22T16:41:13;16.00;99.90
30097;DHT22;16915;51.466;3.610;2022-10-22T16:43:43;15.90;99.90
30097;DHT22;16915;51.466;3.610;2022-10-22T16:46:10;15.80;99.90
30097;DHT22;16915;51.466;3.610;2022-10-22T16:48:35;15.70;99.90
30097;DHT22;16915;51.466;3.610;2022-10-22T16:51:08;15.60;99.90
30097;DHT22;16915;51.466;3.610;2022-10-22T16:53:34;15.50;99.90
30097;DHT22;16915;51.466;3.610;2022-10-22T16:56:00;15.40;99.90
30097;DHT22;16915;51.466;3.610;2022-10-22T16:58:25;15.30;99.90
30097;DHT22;16915;51.466;3.610;2022-10-22T17:00:51;15.20;99.90
30097;DHT22;16915;51.466;3.610;2022-10-22T17:03:16;15.10;99.90
30097;DHT22;16915;51.466;3.610;2022-10-22T17:05:42;15.00;99.90
30097;DHT22;16915;51.466;3.610;2022-10-22T17:08:08;15.00;99.90
30097;DHT22;16915;51.466;3.610;2022-10-22T17:10:35;14.90;99.90
30097;DHT22;16915;51.466;3.610;2022-10-22T17:13:02;14.90;99.90
30097;DHT22;16915;51.466;3.610;2022-10-22T17:15:28;14.80;99.90
30097;DHT22;16915;51.466;3.610;2022-10-22T17:17:54;14.80;99.90
30097;DHT22;16915;51.466;3.610;2022-10-22T17:20:19;14.70;99.90
30097;DHT22;16915;51.466;3.610;2022-10-22T17:22:47;14.80;99.90
30097;DHT22;16915;51.466;3.610;2022-10-22T17:25:31;14.80;99.90
30097;DHT22;16915;51.466;3.610;2022-10-22T17:27:59;14.80;99.90
30097;DHT22;16915;51.466;3.610;2022-10-22T17:30:25;14.70;99.90
30097;DHT22;16915;51.466;3.610;2022-10-22T17:32:54;14.70;99.90
30097;DHT22;16915;51.466;3.610;2022-10-22T17:35:20;14.70;99.90
30097;DHT22;16915;51.466;3.610;2022-10-22T17:37:45;14.70;99.90
30097;DHT22;16915;51.466;3.610;2022-10-22T17:40:12;14.70;99.90
30097;DHT22;16915;51.466;3.610;2022-10-22T17:42:38;14.70;99.90
30097;DHT22;16915;51.466;3.610;2022-10-22T17:45:04;14.70;99.90
30097;DHT22;16915;51.466;3.610;2022-10-22T17:47:30;14.70;99.90
30097;DHT22;16915;51.466;3.610;2022-10-22T17:49:55;14.70;99.90
30097;DHT22;16915;51.466;3.610;2022-10-22T17:52:22;14.70;99.90
30097;DHT22;16915;51.466;3.610;2022-10-22T17:54:48;14.70;99.90
30097;DHT22;16915;51.466;3.610;2022-10-22T17:57:14;14.80;99.90
30097;DHT22;16915;51.466;3.610;2022-10-22T17:59:40;14.80;99.90
30097;DHT22;16915;51.466;3.610;2022-10-22T18:02:14;14.80;99.90
30097;DHT22;16915;51.466;3.610;2022-10-22T18:04:40;14.80;99.90
30097;DHT22;16915;51.466;3.610;2022-10-22T18:07:06;14.80;99.90
30097;DHT22;16915;51.466;3.610;2022-10-22T18:09:31;14.70;99.90
30097;DHT22;16915;51.466;3.610;2022-10-22T18:11:57;14.70;99.90
30097;DHT22;16915;51.466;3.610;2022-10-22T18:14:23;14.70;99.90
30097;DHT22;16915;51.466;3.610;2022-10-22T18:16:49;14.60;99.90
30097;DHT22;16915;51.466;3.610;2022-10-22T18:19:18;14.60;99.90
30097;DHT22;16915;51.466;3.610;2022-10-22T18:21:44;14.60;99.90
30097;DHT22;16915;51.466;3.610;2022-10-22T18:24:10;14.60;99.90
30097;DHT22;16915;51.466;3.610;2022-10-22T18:26:37;14.60;99.90
30097;DHT22;16915;51.466;3.610;2022-10-22T18:29:02;14.60;99.90
30097;DHT22;16915;51.466;3.610;2022-10-22T18:31:28;14.60;99.90
30097;DHT22;16915;51.466;3.610;2022-10-22T18:33:55;14.60;99.90
30097;DHT22;16915;51.466;3.610;2022-10-22T18:36:23;14.60;99.90
30097;DHT22;16915;51.466;3.610;2022-10-22T18:38:53;14.60;99.90
30097;DHT22;16915;51.466;3.610;2022-10-22T18:41:20;14.50;99.90
30097;DHT22;16915;51.466;3.610;2022-10-22T18:43:57;14.60;99.90
30097;DHT22;16915;51.466;3.610;2022-10-22T18:46:24;14.60;99.90
30097;DHT22;16915;51.466;3.610;2022-10-22T18:48:54;14.60;99.90
30097;DHT22;16915;51.466;3.610;2022-10-22T18:51:27;14.60;99.90
30097;DHT22;16915;51.466;3.610;2022-10-22T18:53:56;14.60;99.90
30097;DHT22;16915;51.466;3.610;2022-10-22T18:56:22;14.60;99.90
30097;DHT22;16915;51.466;3.610;2022-10-22T18:58:48;14.50;99.90
30097;DHT22;16915;51.466;3.610;2022-10-22T19:01:14;14.60;99.90
30097;DHT22;16915;51.466;3.610;2022-10-22T19:03:48;14.60;99.90
30097;DHT22;16915;51.466;3.610;2022-10-22T19:06:15;14.60;99.90
30097;DHT22;16915;51.466;3.610;2022-10-22T19:08:42;14.60;99.90
30097;DHT22;16915;51.466;3.610;2022-10-22T19:11:10;14.50;99.90
30097;DHT22;16915;51.466;3.610;2022-10-22T19:13:36;14.50;99.90
30097;DHT22;16915;51.466;3.610;2022-10-22T19:16:03;14.40;99.90
30097;DHT22;16915;51.466;3.610;2022-10-22T19:18:29;14.40;99.90
30097;DHT22;16915;51.466;3.610;2022-10-22T19:20:59;14.40;99.90
30097;DHT22;16915;51.466;3.610;2022-10-22T19:23:25;14.40;99.90